Bookmark and Share
Track history (hours):
 

MSC Federica

Last reported at 2014-Apr-18 01:10 UTC. Time now 2014-Apr-23 13:09 UTC.
Position N 34°52' W 075°31'.

Length 294 m; draft 9.4 m.

Type: Ship (hazmat cat B). MMSI: 357363000.

NotesDate/timePositionNaut miles runAvg speedWind from/ knotsBaromVisibWave heightAir tempDewpointWater temp
2014-Apr-18 01:10N 34°52' W 075°31'29714.4
2014-Apr-17 04:33N 39°39' W 073°55'1614.9
2014-Apr-17 03:31N 39°54' W 073°52'1414.7
2014-Apr-17 02:33N 40°08' W 073°50'1510.3
2014-Apr-17 01:05N 40°23' W 073°49'5 9.3
2014-Apr-17 00:33N 40°28' W 073°52'1111.4
2014-Apr-16 23:34N 40°36' W 074°03'6 6.1
2014-Apr-16 22:33N 40°40' W 074°08'1 1.2
2014-Apr-16 21:29N 40°41' W 074°09'0 0.0
2014-Apr-16 20:32N 40°41' W 074°09'0 0.0
2014-Apr-16 19:14N 40°41' W 074°09'0 0.0
2014-Apr-16 18:29N 40°41' W 074°09'0 0.0
2014-Apr-16 17:29N 40°41' W 074°09'0 0.0
2014-Apr-16 16:26N 40°41' W 074°09'0 0.0
2014-Apr-16 15:32N 40°41' W 074°09'0 0.0
2014-Apr-16 14:32N 40°41' W 074°09'0 0.0
2014-Apr-16 13:26N 40°41' W 074°09'0 0.0
2014-Apr-16 12:32N 40°41' W 074°09'0 0.0
2014-Apr-16 11:29N 40°41' W 074°09'0 0.0
2014-Apr-16 10:32N 40°41' W 074°09'0 0.0
2014-Apr-16 09:32N 40°41' W 074°09'0 0.0
2014-Apr-16 08:29N 40°41' W 074°09'0 0.0
2014-Apr-16 07:32N 40°41' W 074°09'0 0.0
2014-Apr-16 06:29N 40°41' W 074°09'0 0.0
2014-Apr-16 05:32N 40°41' W 074°09'0 0.0
2014-Apr-16 04:32N 40°41' W 074°09'0 0.0
2014-Apr-16 03:26N 40°41' W 074°09'0 0.0
2014-Apr-16 02:32N 40°41' W 074°09'0 0.0
2014-Apr-16 01:32N 40°41' W 074°09'0 0.0
2014-Apr-16 00:32N 40°41' W 074°09'0 0.0
2014-Apr-15 23:23N 40°41' W 074°09'0 0.0
2014-Apr-15 22:32N 40°41' W 074°09'1 0.8
2014-Apr-15 21:33N 40°41' W 074°08'4 3.6
2014-Apr-15 20:33N 40°39' W 074°04'1211.5
2014-Apr-15 19:32N 40°29' W 073°55'46 9.2
2014-Apr-15 14:33N 39°45' W 073°42'15 7.5
2014-Apr-15 12:33N 39°30' W 073°45'1615.4
2014-Apr-15 11:31N 39°16' W 073°54'1515.6
2014-Apr-15 10:33N 39°02' W 074°03'58 1.6
2014-Apr-13 22:29N 38°11' W 074°39'  

Dump ship's entire track history

sailing weather and tide predictions

MSC Federica — HPQE — position and weather